Gillette, WY

12:30 AM MDT on October 22, 2014 (GMT -0600)
Gillette-Campbell County | Change Station
CLOSE
Current Station
Airport
Location: Gillette,
Elevation: 4364 ft
Nearby Weather Stations

Elev 4364 ft 44.34 °N, 105.54 °W | Updated 37 minutes ago

Clear
Clear
54 °F
Feels Like 54 °F
N
17
Wind Variable Wind from NNW

Today
High -- | Low -- °F
--% Chance of Precip.
Yesterday
High -- | Low -- °F
Precip. -- in
7:26 AM 6:06 PM
Waning Crescent, 3% visible
Pressure 29.78 in
Visibility 10.0 miles
Clouds Clear
Dew Point 23 °F
Humidity 30%
Rainfall 0.00 in
Snow Depth Not available.
UV 0 out of 12
Pollen 2.30 out of 12
Air Quality Not available.
Flu Activity Sporadic
METAR KGCC 220553Z AUTO 33015KT 10SM CLR 12/M05 A2989 RMK AO2 WSHFT 0449 RAB08E23 SLP084 P0000 60000 T01221050 10200 20122 53029

More Conditions Fewer Conditions

Pressure 29.78 in
Visibility 10.0 miles
Clouds Clear
Dew Point 23 °F
Humidity 30%
Rainfall 0.00 in
Snow Depth Not available.
UV 0 out of 12
Pollen 2.30 out of 12
Air Quality Not available.
Flu Activity Sporadic
METAR KGCC 220553Z AUTO 33015KT 10SM CLR 12/M05 A2989 RMK AO2 WSHFT 0449 RAB08E23 SLP084 P0000 60000 T01221050 10200 20122 53029

More Conditions Fewer Conditions

10-Day Weather Forecast

Almanac

Astronomy

Oct. 22, 2014 Rise Set
Actual Time 7:26 AM MDT 6:06 PM MDT
Civil Twilight 6:56 AM MDT 6:35 PM MDT
Nautical Twilight 6:22 AM MDT 7:09 PM MDT
Astronomical Twilight 5:49 AM MDT 7:43 PM MDT
Moon 6:07 AM MDT 5:36 PM MDT
Length of Visible Light 11h 39m
Length of Day
10h 40m
Tomorrow will be 2m 53s shorter.
Waning Crescent, 3% of the Moon is Illuminated
Today
Waning Crescent
Oct 23
New
Oct 30
First Quarter
Nov 6
Full
Nov 14
Last Quarter

Community

WunderPhotos

Upload Photos

1,763,884 photos uploaded!

Nearby

Snow Depth

Station Depth Elevation
Bald Mountain 1 in 9380 ft
Casper Mountain 0 in 7850 ft
Reno Hill 0 in 8500 ft
Laprele Creek 0 in 8375 ft
Windy Peak 0 in 7900 ft

Earthquake Activity

City Distance Mag. Time & Date
No recent earthquake activity has been reported nearby.
Minimum magnitude displayed is 2.5.

Coastal Water Temperatures

Place Temperature
No Stations Reporting

Nearby Weather Stations